sensor_id;sensor_type;location;lat;lon;timestamp;P1;durP1;ratioP1;P2;durP2;ratioP2
3997;SDS011;61314;53.444;9.902;2023-12-28T00:02:23;4.03;;;2.10;;
3997;SDS011;61314;53.444;9.902;2023-12-28T00:04:50;4.35;;;2.80;;
3997;SDS011;61314;53.444;9.902;2023-12-28T00:07:17;6.53;;;3.08;;
3997;SDS011;61314;53.444;9.902;2023-12-28T00:09:45;3.67;;;2.75;;
3997;SDS011;61314;53.444;9.902;2023-12-28T00:12:12;3.00;;;2.15;;
3997;SDS011;61314;53.444;9.902;2023-12-28T00:14:39;2.90;;;2.50;;
3997;SDS011;61314;53.444;9.902;2023-12-28T00:17:06;3.63;;;2.55;;
3997;SDS011;61314;53.444;9.902;2023-12-28T00:19:33;3.05;;;2.80;;
3997;SDS011;61314;53.444;9.902;2023-12-28T00:22:01;2.80;;;2.60;;
3997;SDS011;61314;53.444;9.902;2023-12-28T00:24:28;2.47;;;2.28;;
3997;SDS011;61314;53.444;9.902;2023-12-28T00:26:55;2.88;;;2.67;;
3997;SDS011;61314;53.444;9.902;2023-12-28T00:29:22;10.73;;;2.80;;
3997;SDS011;61314;53.444;9.902;2023-12-28T00:31:49;5.82;;;2.65;;
3997;SDS011;61314;53.444;9.902;2023-12-28T00:34:16;2.45;;;2.00;;
3997;SDS011;61314;53.444;9.902;2023-12-28T00:36:44;6.28;;;2.30;;
3997;SDS011;61314;53.444;9.902;2023-12-28T00:39:11;2.88;;;2.50;;
3997;SDS011;61314;53.444;9.902;2023-12-28T00:41:38;2.95;;;2.47;;
3997;SDS011;61314;53.444;9.902;2023-12-28T00:44:06;8.30;;;3.13;;
3997;SDS011;61314;53.444;9.902;2023-12-28T00:46:35;2.95;;;2.47;;
3997;SDS011;61314;53.444;9.902;2023-12-28T00:49:02;4.80;;;2.72;;
3997;SDS011;61314;53.444;9.902;2023-12-28T00:51:30;2.45;;;2.25;;
3997;SDS011;61314;53.444;9.902;2023-12-28T00:53:57;4.03;;;2.63;;
3997;SDS011;61314;53.444;9.902;2023-12-28T00:56:24;3.25;;;2.63;;
3997;SDS011;61314;53.444;9.902;2023-12-28T00:58:51;5.15;;;2.85;;
3997;SDS011;61314;53.444;9.902;2023-12-28T01:01:18;5.38;;;3.53;;
3997;SDS011;61314;53.444;9.902;2023-12-28T01:03:46;2.80;;;2.60;;
3997;SDS011;61314;53.444;9.902;2023-12-28T01:06:13;2.55;;;2.30;;
3997;SDS011;61314;53.444;9.902;2023-12-28T01:08:40;6.97;;;2.75;;
3997;SDS011;61314;53.444;9.902;2023-12-28T01:11:07;4.25;;;3.00;;
3997;SDS011;61314;53.444;9.902;2023-12-28T01:13:34;3.00;;;2.80;;
3997;SDS011;61314;53.444;9.902;2023-12-28T01:16:05;3.08;;;2.85;;
3997;SDS011;61314;53.444;9.902;2023-12-28T01:18:32;4.18;;;2.85;;
3997;SDS011;61314;53.444;9.902;2023-12-28T01:21:01;3.78;;;2.72;;
3997;SDS011;61314;53.444;9.902;2023-12-28T01:23:28;6.72;;;2.58;;
3997;SDS011;61314;53.444;9.902;2023-12-28T01:25:55;3.10;;;2.80;;
3997;SDS011;61314;53.444;9.902;2023-12-28T01:28:22;3.60;;;3.00;;
3997;SDS011;61314;53.444;9.902;2023-12-28T01:30:50;3.40;;;3.10;;
3997;SDS011;61314;53.444;9.902;2023-12-28T01:33:17;3.40;;;3.10;;
3997;SDS011;61314;53.444;9.902;2023-12-28T01:35:44;5.53;;;3.60;;
3997;SDS011;61314;53.444;9.902;2023-12-28T01:38:11;3.30;;;3.00;;
3997;SDS011;61314;53.444;9.902;2023-12-28T01:40:43;5.45;;;2.90;;
3997;SDS011;61314;53.444;9.902;2023-12-28T01:43:10;7.38;;;3.10;;
3997;SDS011;61314;53.444;9.902;2023-12-28T01:45:37;4.28;;;3.22;;
3997;SDS011;61314;53.444;9.902;2023-12-28T01:48:05;4.13;;;3.83;;
3997;SDS011;61314;53.444;9.902;2023-12-28T01:50:32;5.05;;;3.17;;
3997;SDS011;61314;53.444;9.902;2023-12-28T01:53:00;4.68;;;4.20;;
3997;SDS011;61314;53.444;9.902;2023-12-28T01:55:27;4.35;;;2.80;;
3997;SDS011;61314;53.444;9.902;2023-12-28T01:57:55;6.28;;;3.20;;
3997;SDS011;61314;53.444;9.902;2023-12-28T02:00:22;3.30;;;2.97;;
3997;SDS011;61314;53.444;9.902;2023-12-28T02:02:50;4.55;;;3.30;;
3997;SDS011;61314;53.444;9.902;2023-12-28T02:05:18;8.10;;;3.40;;
3997;SDS011;61314;53.444;9.902;2023-12-28T02:07:45;4.35;;;3.55;;
3997;SDS011;61314;53.444;9.902;2023-12-28T02:10:12;8.52;;;3.47;;
3997;SDS011;61314;53.444;9.902;2023-12-28T02:12:40;4.95;;;3.35;;
3997;SDS011;61314;53.444;9.902;2023-12-28T02:15:07;6.78;;;3.92;;
3997;SDS011;61314;53.444;9.902;2023-12-28T02:17:43;3.72;;;2.88;;
3997;SDS011;61314;53.444;9.902;2023-12-28T02:20:12;3.15;;;2.63;;
3997;SDS011;61314;53.444;9.902;2023-12-28T02:22:39;4.75;;;3.38;;
3997;SDS011;61314;53.444;9.902;2023-12-28T02:25:08;7.38;;;3.45;;
3997;SDS011;61314;53.444;9.902;2023-12-28T02:27:36;4.15;;;3.53;;
3997;SDS011;61314;53.444;9.902;2023-12-28T02:30:08;3.63;;;3.33;;
3997;SDS011;61314;53.444;9.902;2023-12-28T02:37:51;7.40;;;4.20;;
3997;SDS011;61314;53.444;9.902;2023-12-28T02:40:18;3.88;;;3.58;;
3997;SDS011;61314;53.444;9.902;2023-12-28T02:42:46;3.45;;;3.25;;
3997;SDS011;61314;53.444;9.902;2023-12-28T02:45:13;6.53;;;3.90;;
3997;SDS011;61314;53.444;9.902;2023-12-28T02:47:41;5.28;;;3.83;;
3997;SDS011;61314;53.444;9.902;2023-12-28T02:50:10;6.03;;;3.80;;
3997;SDS011;61314;53.444;9.902;2023-12-28T02:52:37;4.35;;;3.75;;
3997;SDS011;61314;53.444;9.902;2023-12-28T02:55:04;6.18;;;4.28;;
3997;SDS011;61314;53.444;9.902;2023-12-28T02:57:32;9.45;;;4.00;;
3997;SDS011;61314;53.444;9.902;2023-12-28T02:59:59;5.15;;;4.40;;
3997;SDS011;61314;53.444;9.902;2023-12-28T03:02:29;4.45;;;3.92;;
3997;SDS011;61314;53.444;9.902;2023-12-28T03:04:56;13.32;;;4.28;;
3997;SDS011;61314;53.444;9.902;2023-12-28T03:07:23;4.70;;;3.78;;
3997;SDS011;61314;53.444;9.902;2023-12-28T03:09:50;4.15;;;3.83;;
3997;SDS011;61314;53.444;9.902;2023-12-28T03:12:18;5.85;;;4.35;;
3997;SDS011;61314;53.444;9.902;2023-12-28T03:14:45;8.13;;;3.72;;
3997;SDS011;61314;53.444;9.902;2023-12-28T03:17:12;4.82;;;4.00;;
3997;SDS011;61314;53.444;9.902;2023-12-28T03:19:39;4.88;;;3.92;;
3997;SDS011;61314;53.444;9.902;2023-12-28T03:22:07;5.43;;;4.88;;
3997;SDS011;61314;53.444;9.902;2023-12-28T03:24:36;5.03;;;3.60;;
3997;SDS011;61314;53.444;9.902;2023-12-28T03:27:06;3.97;;;3.67;;
3997;SDS011;61314;53.444;9.902;2023-12-28T03:29:33;7.55;;;4.10;;
3997;SDS011;61314;53.444;9.902;2023-12-28T03:32:00;5.45;;;3.50;;
3997;SDS011;61314;53.444;9.902;2023-12-28T03:34:28;9.93;;;4.07;;
3997;SDS011;61314;53.444;9.902;2023-12-28T03:36:56;6.43;;;3.53;;
3997;SDS011;61314;53.444;9.902;2023-12-28T03:39:23;4.57;;;3.95;;
3997;SDS011;61314;53.444;9.902;2023-12-28T03:41:51;6.50;;;4.40;;
3997;SDS011;61314;53.444;9.902;2023-12-28T03:44:21;4.38;;;3.85;;
3997;SDS011;61314;53.444;9.902;2023-12-28T03:46:49;7.68;;;5.45;;
3997;SDS011;61314;53.444;9.902;2023-12-28T03:49:16;6.95;;;4.38;;
3997;SDS011;61314;53.444;9.902;2023-12-28T03:51:44;4.65;;;4.28;;
3997;SDS011;61314;53.444;9.902;2023-12-28T03:54:11;10.23;;;4.32;;
3997;SDS011;61314;53.444;9.902;2023-12-28T03:56:38;3.90;;;3.53;;
3997;SDS011;61314;53.444;9.902;2023-12-28T03:59:06;8.48;;;4.10;;
3997;SDS011;61314;53.444;9.902;2023-12-28T04:01:33;6.03;;;4.60;;
3997;SDS011;61314;53.444;9.902;2023-12-28T04:04:00;7.78;;;3.90;;
3997;SDS011;61314;53.444;9.902;2023-12-28T04:06:28;7.95;;;3.95;;
3997;SDS011;61314;53.444;9.902;2023-12-28T04:08:55;6.68;;;4.00;;
3997;SDS011;61314;53.444;9.902;2023-12-28T04:11:23;4.50;;;4.10;;
3997;SDS011;61314;53.444;9.902;2023-12-28T04:13:50;4.13;;;3.83;;
3997;SDS011;61314;53.444;9.902;2023-12-28T04:16:17;5.53;;;3.85;;
3997;SDS011;61314;53.444;9.902;2023-12-28T04:18:44;7.53;;;3.85;;
3997;SDS011;61314;53.444;9.902;2023-12-28T04:21:12;4.00;;;3.60;;
3997;SDS011;61314;53.444;9.902;2023-12-28T04:23:40;5.25;;;4.18;;
3997;SDS011;61314;53.444;9.902;2023-12-28T04:26:08;4.50;;;3.30;;
3997;SDS011;61314;53.444;9.902;2023-12-28T04:28:35;6.35;;;3.60;;
3997;SDS011;61314;53.444;9.902;2023-12-28T04:31:03;4.25;;;3.95;;
3997;SDS011;61314;53.444;9.902;2023-12-28T04:33:31;4.47;;;3.80;;
3997;SDS011;61314;53.444;9.902;2023-12-28T04:36:01;4.15;;;3.72;;
3997;SDS011;61314;53.444;9.902;2023-12-28T04:38:30;4.45;;;3.80;;
3997;SDS011;61314;53.444;9.902;2023-12-28T04:40:58;8.70;;;3.50;;
3997;SDS011;61314;53.444;9.902;2023-12-28T04:43:25;6.65;;;4.85;;
3997;SDS011;61314;53.444;9.902;2023-12-28T04:45:52;6.40;;;4.38;;
3997;SDS011;61314;53.444;9.902;2023-12-28T04:48:19;5.50;;;3.90;;
3997;SDS011;61314;53.444;9.902;2023-12-28T04:50:50;8.43;;;4.18;;
3997;SDS011;61314;53.444;9.902;2023-12-28T04:53:18;6.47;;;3.90;;
3997;SDS011;61314;53.444;9.902;2023-12-28T04:55:46;8.82;;;4.68;;
3997;SDS011;61314;53.444;9.902;2023-12-28T04:58:13;10.90;;;4.90;;
3997;SDS011;61314;53.444;9.902;2023-12-28T05:00:41;8.68;;;4.03;;
3997;SDS011;61314;53.444;9.902;2023-12-28T05:03:08;4.95;;;3.90;;
3997;SDS011;61314;53.444;9.902;2023-12-28T05:05:35;4.38;;;3.97;;
3997;SDS011;61314;53.444;9.902;2023-12-28T05:08:03;5.57;;;3.83;;
3997;SDS011;61314;53.444;9.902;2023-12-28T05:10:30;9.40;;;4.55;;
3997;SDS011;61314;53.444;9.902;2023-12-28T05:12:57;5.53;;;4.32;;
3997;SDS011;61314;53.444;9.902;2023-12-28T05:15:27;7.20;;;3.97;;
3997;SDS011;61314;53.444;9.902;2023-12-28T05:17:55;5.78;;;4.43;;
3997;SDS011;61314;53.444;9.902;2023-12-28T05:20:24;4.47;;;4.10;;
3997;SDS011;61314;53.444;9.902;2023-12-28T05:22:51;5.53;;;4.63;;
3997;SDS011;61314;53.444;9.902;2023-12-28T05:25:18;5.18;;;3.67;;
3997;SDS011;61314;53.444;9.902;2023-12-28T05:27:45;6.35;;;4.38;;
3997;SDS011;61314;53.444;9.902;2023-12-28T05:30:12;7.18;;;4.30;;
3997;SDS011;61314;53.444;9.902;2023-12-28T05:32:40;4.30;;;3.90;;
3997;SDS011;61314;53.444;9.902;2023-12-28T05:35:07;10.70;;;3.83;;
3997;SDS011;61314;53.444;9.902;2023-12-28T05:37:34;6.05;;;4.20;;
3997;SDS011;61314;53.444;9.902;2023-12-28T05:40:02;5.55;;;4.38;;
3997;SDS011;61314;53.444;9.902;2023-12-28T05:42:29;8.98;;;4.22;;
3997;SDS011;61314;53.444;9.902;2023-12-28T05:44:56;5.93;;;4.53;;
3997;SDS011;61314;53.444;9.902;2023-12-28T05:47:23;4.18;;;3.72;;
3997;SDS011;61314;53.444;9.902;2023-12-28T05:49:50;7.30;;;4.18;;
3997;SDS011;61314;53.444;9.902;2023-12-28T05:52:18;5.22;;;4.13;;
3997;SDS011;61314;53.444;9.902;2023-12-28T05:54:46;3.65;;;3.35;;
3997;SDS011;61314;53.444;9.902;2023-12-28T05:57:14;4.90;;;3.67;;
3997;SDS011;61314;53.444;9.902;2023-12-28T05:59:42;5.03;;;4.15;;
3997;SDS011;61314;53.444;9.902;2023-12-28T06:02:09;5.03;;;4.50;;
3997;SDS011;61314;53.444;9.902;2023-12-28T06:04:36;7.57;;;3.95;;
3997;SDS011;61314;53.444;9.902;2023-12-28T06:07:04;8.27;;;3.85;;
3997;SDS011;61314;53.444;9.902;2023-12-28T06:09:32;5.10;;;4.13;;
3997;SDS011;61314;53.444;9.902;2023-12-28T06:11:59;8.15;;;4.22;;
3997;SDS011;61314;53.444;9.902;2023-12-28T06:14:26;7.65;;;4.20;;
3997;SDS011;61314;53.444;9.902;2023-12-28T06:16:53;4.95;;;3.55;;
3997;SDS011;61314;53.444;9.902;2023-12-28T06:19:21;10.30;;;4.57;;
3997;SDS011;61314;53.444;9.902;2023-12-28T06:21:48;8.75;;;3.85;;
3997;SDS011;61314;53.444;9.902;2023-12-28T06:24:16;7.38;;;3.63;;
3997;SDS011;61314;53.444;9.902;2023-12-28T06:26:43;5.90;;;3.90;;
3997;SDS011;61314;53.444;9.902;2023-12-28T06:29:11;4.25;;;3.75;;
3997;SDS011;61314;53.444;9.902;2023-12-28T06:31:38;8.73;;;4.63;;
3997;SDS011;61314;53.444;9.902;2023-12-28T06:34:06;5.40;;;4.05;;
3997;SDS011;61314;53.444;9.902;2023-12-28T06:36:34;8.73;;;4.40;;
3997;SDS011;61314;53.444;9.902;2023-12-28T06:39:02;9.48;;;3.90;;
3997;SDS011;61314;53.444;9.902;2023-12-28T06:41:29;6.10;;;4.47;;
3997;SDS011;61314;53.444;9.902;2023-12-28T06:43:56;9.40;;;3.60;;
3997;SDS011;61314;53.444;9.902;2023-12-28T06:46:24;6.57;;;4.45;;
3997;SDS011;61314;53.444;9.902;2023-12-28T06:48:51;6.72;;;3.45;;
3997;SDS011;61314;53.444;9.902;2023-12-28T06:51:19;10.13;;;4.45;;
3997;SDS011;61314;53.444;9.902;2023-12-28T06:53:47;8.65;;;4.25;;
3997;SDS011;61314;53.444;9.902;2023-12-28T06:56:15;6.40;;;3.90;;
3997;SDS011;61314;53.444;9.902;2023-12-28T06:58:43;4.03;;;3.63;;
3997;SDS011;61314;53.444;9.902;2023-12-28T07:01:10;8.25;;;3.70;;
3997;SDS011;61314;53.444;9.902;2023-12-28T07:03:39;8.82;;;3.97;;
3997;SDS011;61314;53.444;9.902;2023-12-28T07:06:06;5.15;;;3.42;;
3997;SDS011;61314;53.444;9.902;2023-12-28T07:08:33;3.72;;;3.17;;
3997;SDS011;61314;53.444;9.902;2023-12-28T07:11:02;5.43;;;4.03;;
3997;SDS011;61314;53.444;9.902;2023-12-28T07:13:31;7.10;;;4.43;;
3997;SDS011;61314;53.444;9.902;2023-12-28T07:15:58;4.35;;;3.90;;
3997;SDS011;61314;53.444;9.902;2023-12-28T07:18:27;8.63;;;4.45;;
3997;SDS011;61314;53.444;9.902;2023-12-28T07:20:55;4.53;;;2.70;;
3997;SDS011;61314;53.444;9.902;2023-12-28T07:23:22;4.80;;;3.45;;
3997;SDS011;61314;53.444;9.902;2023-12-28T07:25:49;9.68;;;4.05;;
3997;SDS011;61314;53.444;9.902;2023-12-28T07:28:17;4.32;;;3.28;;
3997;SDS011;61314;53.444;9.902;2023-12-28T07:30:44;3.35;;;3.05;;
3997;SDS011;61314;53.444;9.902;2023-12-28T07:33:11;6.07;;;3.67;;
3997;SDS011;61314;53.444;9.902;2023-12-28T07:35:39;9.43;;;3.60;;
3997;SDS011;61314;53.444;9.902;2023-12-28T07:38:06;10.30;;;3.13;;
3997;SDS011;61314;53.444;9.902;2023-12-28T07:40:33;11.63;;;3.30;;
3997;SDS011;61314;53.444;9.902;2023-12-28T07:43:00;9.82;;;3.72;;
3997;SDS011;61314;53.444;9.902;2023-12-28T07:45:28;6.80;;;3.40;;
3997;SDS011;61314;53.444;9.902;2023-12-28T07:47:55;4.43;;;2.83;;
3997;SDS011;61314;53.444;9.902;2023-12-28T07:50:23;6.32;;;2.72;;
3997;SDS011;61314;53.444;9.902;2023-12-28T07:52:51;7.13;;;3.22;;
3997;SDS011;61314;53.444;9.902;2023-12-28T07:55:18;9.18;;;3.78;;
3997;SDS011;61314;53.444;9.902;2023-12-28T07:57:46;5.88;;;3.00;;
3997;SDS011;61314;53.444;9.902;2023-12-28T08:00:13;6.25;;;3.47;;
3997;SDS011;61314;53.444;9.902;2023-12-28T08:02:41;9.43;;;3.42;;
3997;SDS011;61314;53.444;9.902;2023-12-28T08:05:08;12.82;;;3.75;;
3997;SDS011;61314;53.444;9.902;2023-12-28T08:07:35;6.85;;;3.05;;
3997;SDS011;61314;53.444;9.902;2023-12-28T08:10:02;13.82;;;3.90;;
3997;SDS011;61314;53.444;9.902;2023-12-28T08:12:30;7.32;;;3.13;;
3997;SDS011;61314;53.444;9.902;2023-12-28T08:14:58;11.20;;;3.38;;
3997;SDS011;61314;53.444;9.902;2023-12-28T08:17:26;12.38;;;4.30;;
3997;SDS011;61314;53.444;9.902;2023-12-28T08:19:53;15.15;;;4.30;;
3997;SDS011;61314;53.444;9.902;2023-12-28T08:22:21;9.98;;;3.35;;
3997;SDS011;61314;53.444;9.902;2023-12-28T08:24:49;6.87;;;2.73;;
3997;SDS011;61314;53.444;9.902;2023-12-28T08:27:16;10.10;;;3.17;;
3997;SDS011;61314;53.444;9.902;2023-12-28T08:29:43;5.53;;;3.53;;
3997;SDS011;61314;53.444;9.902;2023-12-28T08:32:11;9.87;;;3.80;;
3997;SDS011;61314;53.444;9.902;2023-12-28T08:34:39;11.18;;;2.80;;
3997;SDS011;61314;53.444;9.902;2023-12-28T08:37:06;8.23;;;3.03;;
3997;SDS011;61314;53.444;9.902;2023-12-28T08:39:33;9.40;;;2.55;;
3997;SDS011;61314;53.444;9.902;2023-12-28T08:42:00;6.70;;;2.37;;
3997;SDS011;61314;53.444;9.902;2023-12-28T08:44:28;10.40;;;2.93;;
3997;SDS011;61314;53.444;9.902;2023-12-28T08:46:55;8.23;;;3.20;;
3997;SDS011;61314;53.444;9.902;2023-12-28T08:49:22;7.13;;;2.70;;
3997;SDS011;61314;53.444;9.902;2023-12-28T08:51:50;7.70;;;2.97;;
3997;SDS011;61314;53.444;9.902;2023-12-28T08:54:17;4.32;;;2.72;;
3997;SDS011;61314;53.444;9.902;2023-12-28T08:56:44;6.93;;;2.72;;
3997;SDS011;61314;53.444;9.902;2023-12-28T08:59:16;5.70;;;2.60;;
3997;SDS011;61314;53.444;9.902;2023-12-28T09:01:44;17.83;;;2.43;;
3997;SDS011;61314;53.444;9.902;2023-12-28T09:04:11;8.13;;;2.47;;
3997;SDS011;61314;53.444;9.902;2023-12-28T09:06:40;7.72;;;3.05;;
3997;SDS011;61314;53.444;9.902;2023-12-28T09:09:07;8.30;;;3.03;;
3997;SDS011;61314;53.444;9.902;2023-12-28T09:11:35;11.75;;;3.10;;
3997;SDS011;61314;53.444;9.902;2023-12-28T09:14:02;13.53;;;2.90;;
3997;SDS011;61314;53.444;9.902;2023-12-28T09:16:29;9.05;;;3.30;;
3997;SDS011;61314;53.444;9.902;2023-12-28T09:18:56;7.13;;;3.43;;
3997;SDS011;61314;53.444;9.902;2023-12-28T09:21:24;14.60;;;3.83;;
3997;SDS011;61314;53.444;9.902;2023-12-28T09:23:52;14.73;;;4.33;;
3997;SDS011;61314;53.444;9.902;2023-12-28T09:26:20;10.57;;;3.90;;
3997;SDS011;61314;53.444;9.902;2023-12-28T09:28:47;20.00;;;8.07;;
3997;SDS011;61314;53.444;9.902;2023-12-28T09:31:14;12.90;;;6.82;;
3997;SDS011;61314;53.444;9.902;2023-12-28T09:33:43;22.33;;;7.10;;
3997;SDS011;61314;53.444;9.902;2023-12-28T09:36:10;27.42;;;8.40;;
3997;SDS011;61314;53.444;9.902;2023-12-28T09:38:41;31.45;;;6.55;;
3997;SDS011;61314;53.444;9.902;2023-12-28T09:41:11;10.87;;;3.20;;
3997;SDS011;61314;53.444;9.902;2023-12-28T09:43:45;13.37;;;6.33;;
3997;SDS011;61314;53.444;9.902;2023-12-28T09:46:16;8.85;;;2.42;;
3997;SDS011;61314;53.444;9.902;2023-12-28T09:48:43;17.73;;;3.50;;
3997;SDS011;61314;53.444;9.902;2023-12-28T09:51:11;11.70;;;3.30;;
3997;SDS011;61314;53.444;9.902;2023-12-28T09:53:41;8.57;;;3.20;;
3997;SDS011;61314;53.444;9.902;2023-12-28T09:56:11;6.50;;;3.17;;
3997;SDS011;61314;53.444;9.902;2023-12-28T09:58:39;11.77;;;3.73;;
3997;SDS011;61314;53.444;9.902;2023-12-28T10:01:06;10.53;;;2.77;;
3997;SDS011;61314;53.444;9.902;2023-12-28T10:03:34;13.33;;;2.70;;
3997;SDS011;61314;53.444;9.902;2023-12-28T10:06:01;10.97;;;2.80;;
3997;SDS011;61314;53.444;9.902;2023-12-28T10:08:29;13.10;;;3.67;;
3997;SDS011;61314;53.444;9.902;2023-12-28T10:10:56;8.63;;;3.27;;
3997;SDS011;61314;53.444;9.902;2023-12-28T10:13:25;11.30;;;2.50;;
3997;SDS011;61314;53.444;9.902;2023-12-28T10:15:52;11.47;;;3.70;;
3997;SDS011;61314;53.444;9.902;2023-12-28T10:18:19;4.17;;;2.27;;
3997;SDS011;61314;53.444;9.902;2023-12-28T10:20:50;7.80;;;3.67;;
3997;SDS011;61314;53.444;9.902;2023-12-28T10:23:18;6.97;;;2.33;;
3997;SDS011;61314;53.444;9.902;2023-12-28T10:25:45;11.33;;;2.57;;
3997;SDS011;61314;53.444;9.902;2023-12-28T10:28:12;14.40;;;4.43;;
3997;SDS011;61314;53.444;9.902;2023-12-28T10:30:40;8.50;;;2.40;;
3997;SDS011;61314;53.444;9.902;2023-12-28T10:33:08;11.17;;;2.50;;
3997;SDS011;61314;53.444;9.902;2023-12-28T10:35:36;9.10;;;3.10;;
3997;SDS011;61314;53.444;9.902;2023-12-28T10:38:03;14.37;;;3.03;;
3997;SDS011;61314;53.444;9.902;2023-12-28T10:40:31;13.03;;;2.73;;
3997;SDS011;61314;53.444;9.902;2023-12-28T10:42:58;16.40;;;3.20;;
3997;SDS011;61314;53.444;9.902;2023-12-28T10:45:29;11.03;;;2.73;;
3997;SDS011;61314;53.444;9.902;2023-12-28T10:50:28;17.30;;;3.10;;
3997;SDS011;61314;53.444;9.902;2023-12-28T10:52:56;17.30;;;3.10;;
3997;SDS011;61314;53.444;9.902;2023-12-28T10:55:34;8.27;;;2.43;;
3997;SDS011;61314;53.444;9.902;2023-12-28T10:58:10;14.20;;;3.20;;
3997;SDS011;61314;53.444;9.902;2023-12-28T11:00:41;10.67;;;2.83;;
3997;SDS011;61314;53.444;9.902;2023-12-28T11:03:10;16.87;;;2.83;;
3997;SDS011;61314;53.444;9.902;2023-12-28T11:05:38;6.60;;;3.00;;
3997;SDS011;61314;53.444;9.902;2023-12-28T11:08:07;15.17;;;2.40;;
3997;SDS011;61314;53.444;9.902;2023-12-28T11:10:34;17.17;;;4.60;;
3997;SDS011;61314;53.444;9.902;2023-12-28T11:13:03;11.17;;;3.47;;
3997;SDS011;61314;53.444;9.902;2023-12-28T11:15:30;14.63;;;3.40;;
3997;SDS011;61314;53.444;9.902;2023-12-28T11:17:58;13.13;;;3.20;;
3997;SDS011;61314;53.444;9.902;2023-12-28T11:20:26;10.23;;;3.67;;
3997;SDS011;61314;53.444;9.902;2023-12-28T11:22:54;12.90;;;3.37;;
3997;SDS011;61314;53.444;9.902;2023-12-28T11:25:23;13.53;;;3.10;;
3997;SDS011;61314;53.444;9.902;2023-12-28T11:27:50;14.70;;;3.20;;
3997;SDS011;61314;53.444;9.902;2023-12-28T11:30:17;12.63;;;3.40;;
3997;SDS011;61314;53.444;9.902;2023-12-28T11:32:44;10.13;;;3.07;;
3997;SDS011;61314;53.444;9.902;2023-12-28T11:35:12;11.57;;;2.93;;
3997;SDS011;61314;53.444;9.902;2023-12-28T11:37:44;13.97;;;3.73;;
3997;SDS011;61314;53.444;9.902;2023-12-28T11:40:16;13.60;;;3.40;;
3997;SDS011;61314;53.444;9.902;2023-12-28T11:42:49;13.17;;;3.23;;
3997;SDS011;61314;53.444;9.902;2023-12-28T11:45:20;11.80;;;2.77;;
3997;SDS011;61314;53.444;9.902;2023-12-28T11:48:01;20.03;;;3.30;;
3997;SDS011;61314;53.444;9.902;2023-12-28T11:50:29;11.97;;;3.00;;
3997;SDS011;61314;53.444;9.902;2023-12-28T11:52:56;19.60;;;3.63;;
3997;SDS011;61314;53.444;9.902;2023-12-28T11:55:24;10.17;;;3.60;;
3997;SDS011;61314;53.444;9.902;2023-12-28T11:57:51;14.70;;;2.97;;
3997;SDS011;61314;53.444;9.902;2023-12-28T12:00:18;15.97;;;3.37;;
3997;SDS011;61314;53.444;9.902;2023-12-28T12:02:47;15.27;;;3.20;;
3997;SDS011;61314;53.444;9.902;2023-12-28T12:05:15;8.87;;;2.30;;
3997;SDS011;61314;53.444;9.902;2023-12-28T12:07:42;15.33;;;3.27;;
3997;SDS011;61314;53.444;9.902;2023-12-28T12:10:14;15.80;;;4.07;;
3997;SDS011;61314;53.444;9.902;2023-12-28T12:12:42;12.87;;;2.80;;
3997;SDS011;61314;53.444;9.902;2023-12-28T12:15:09;13.13;;;3.23;;
3997;SDS011;61314;53.444;9.902;2023-12-28T12:17:37;10.37;;;3.50;;
3997;SDS011;61314;53.444;9.902;2023-12-28T12:20:05;20.83;;;3.13;;
3997;SDS011;61314;53.444;9.902;2023-12-28T12:22:32;17.63;;;3.67;;
3997;SDS011;61314;53.444;9.902;2023-12-28T12:24:59;13.83;;;3.10;;
3997;SDS011;61314;53.444;9.902;2023-12-28T12:27:27;8.90;;;3.80;;
3997;SDS011;61314;53.444;9.902;2023-12-28T12:29:54;24.10;;;3.97;;
3997;SDS011;61314;53.444;9.902;2023-12-28T12:32:21;22.20;;;2.93;;
3997;SDS011;61314;53.444;9.902;2023-12-28T12:34:49;11.93;;;4.07;;
3997;SDS011;61314;53.444;9.902;2023-12-28T12:37:17;14.53;;;3.60;;
3997;SDS011;61314;53.444;9.902;2023-12-28T12:39:44;12.37;;;3.40;;
3997;SDS011;61314;53.444;9.902;2023-12-28T12:42:14;12.73;;;2.83;;
3997;SDS011;61314;53.444;9.902;2023-12-28T12:44:42;15.73;;;3.40;;
3997;SDS011;61314;53.444;9.902;2023-12-28T12:47:10;20.17;;;4.00;;
3997;SDS011;61314;53.444;9.902;2023-12-28T12:49:37;10.93;;;2.97;;
3997;SDS011;61314;53.444;9.902;2023-12-28T12:52:06;18.23;;;3.53;;
3997;SDS011;61314;53.444;9.902;2023-12-28T12:54:34;22.53;;;4.03;;
3997;SDS011;61314;53.444;9.902;2023-12-28T12:57:02;13.87;;;2.93;;
3997;SDS011;61314;53.444;9.902;2023-12-28T12:59:29;12.77;;;3.60;;
3997;SDS011;61314;53.444;9.902;2023-12-28T13:01:57;13.37;;;3.40;;
3997;SDS011;61314;53.444;9.902;2023-12-28T13:04:24;13.73;;;3.87;;
3997;SDS011;61314;53.444;9.902;2023-12-28T13:06:53;10.33;;;3.33;;
3997;SDS011;61314;53.444;9.902;2023-12-28T13:09:21;16.73;;;3.53;;
3997;SDS011;61314;53.444;9.902;2023-12-28T13:11:49;17.10;;;2.90;;
3997;SDS011;61314;53.444;9.902;2023-12-28T13:14:18;18.07;;;3.57;;
3997;SDS011;61314;53.444;9.902;2023-12-28T13:16:51;16.90;;;3.93;;
3997;SDS011;61314;53.444;9.902;2023-12-28T13:19:23;13.87;;;4.47;;
3997;SDS011;61314;53.444;9.902;2023-12-28T13:21:51;10.67;;;2.77;;
3997;SDS011;61314;53.444;9.902;2023-12-28T13:24:18;19.47;;;3.00;;
3997;SDS011;61314;53.444;9.902;2023-12-28T13:26:45;16.73;;;4.00;;
3997;SDS011;61314;53.444;9.902;2023-12-28T13:29:12;14.83;;;3.83;;
3997;SDS011;61314;53.444;9.902;2023-12-28T13:31:40;15.17;;;3.30;;
3997;SDS011;61314;53.444;9.902;2023-12-28T13:34:07;18.30;;;3.13;;
3997;SDS011;61314;53.444;9.902;2023-12-28T13:36:35;22.10;;;3.70;;
3997;SDS011;61314;53.444;9.902;2023-12-28T13:39:02;11.97;;;3.00;;
3997;SDS011;61314;53.444;9.902;2023-12-28T13:41:29;17.87;;;4.03;;
3997;SDS011;61314;53.444;9.902;2023-12-28T13:43:57;18.63;;;4.60;;
3997;SDS011;61314;53.444;9.902;2023-12-28T13:46:28;16.20;;;3.30;;
3997;SDS011;61314;53.444;9.902;2023-12-28T13:48:55;18.17;;;3.07;;
3997;SDS011;61314;53.444;9.902;2023-12-28T13:51:23;20.33;;;3.37;;
3997;SDS011;61314;53.444;9.902;2023-12-28T13:53:51;17.70;;;3.50;;
3997;SDS011;61314;53.444;9.902;2023-12-28T13:56:18;15.97;;;3.13;;
3997;SDS011;61314;53.444;9.902;2023-12-28T13:58:45;18.57;;;4.53;;
3997;SDS011;61314;53.444;9.902;2023-12-28T14:01:12;17.37;;;3.93;;
3997;SDS011;61314;53.444;9.902;2023-12-28T14:03:40;9.90;;;2.43;;
3997;SDS011;61314;53.444;9.902;2023-12-28T14:06:07;14.00;;;3.07;;
3997;SDS011;61314;53.444;9.902;2023-12-28T14:08:35;17.43;;;3.10;;
3997;SDS011;61314;53.444;9.902;2023-12-28T14:11:02;14.43;;;3.20;;
3997;SDS011;61314;53.444;9.902;2023-12-28T14:13:33;12.40;;;2.93;;
3997;SDS011;61314;53.444;9.902;2023-12-28T14:16:01;17.43;;;4.13;;
3997;SDS011;61314;53.444;9.902;2023-12-28T14:18:29;18.20;;;4.20;;
3997;SDS011;61314;53.444;9.902;2023-12-28T14:20:57;22.20;;;3.80;;
3997;SDS011;61314;53.444;9.902;2023-12-28T14:23:24;19.83;;;3.87;;
3997;SDS011;61314;53.444;9.902;2023-12-28T14:25:52;16.63;;;3.37;;
3997;SDS011;61314;53.444;9.902;2023-12-28T14:28:20;10.37;;;3.20;;
3997;SDS011;61314;53.444;9.902;2023-12-28T14:30:50;22.93;;;3.73;;
3997;SDS011;61314;53.444;9.902;2023-12-28T14:33:17;12.73;;;3.53;;
3997;SDS011;61314;53.444;9.902;2023-12-28T14:35:45;18.53;;;3.67;;
3997;SDS011;61314;53.444;9.902;2023-12-28T14:38:14;13.40;;;2.90;;
3997;SDS011;61314;53.444;9.902;2023-12-28T14:40:41;24.60;;;3.20;;
3997;SDS011;61314;53.444;9.902;2023-12-28T14:43:08;13.53;;;3.50;;
3997;SDS011;61314;53.444;9.902;2023-12-28T14:45:36;14.83;;;3.90;;
3997;SDS011;61314;53.444;9.902;2023-12-28T14:48:03;17.43;;;3.30;;
3997;SDS011;61314;53.444;9.902;2023-12-28T14:50:30;11.70;;;3.00;;
3997;SDS011;61314;53.444;9.902;2023-12-28T14:52:57;17.57;;;3.67;;
3997;SDS011;61314;53.444;9.902;2023-12-28T14:55:25;11.83;;;2.77;;
3997;SDS011;61314;53.444;9.902;2023-12-28T14:57:53;24.20;;;3.77;;
3997;SDS011;61314;53.444;9.902;2023-12-28T15:00:21;15.73;;;3.73;;
3997;SDS011;61314;53.444;9.902;2023-12-28T15:02:48;19.97;;;3.30;;
3997;SDS011;61314;53.444;9.902;2023-12-28T15:05:16;11.48;;;2.88;;
3997;SDS011;61314;53.444;9.902;2023-12-28T15:07:43;18.40;;;3.20;;